createdAt,value
2023-03-11T00:00:38.339Z,12.75
2023-03-11T00:03:09.315Z,12.93
2023-03-11T00:05:39.115Z,13.05
2023-03-11T00:08:08.361Z,12.02
2023-03-11T00:10:38.452Z,12.73
2023-03-11T00:13:07.700Z,13.93
2023-03-11T00:15:35.643Z,13.20
2023-03-11T00:18:04.004Z,13.73
2023-03-11T00:20:34.588Z,13.13
2023-03-11T00:23:03.330Z,12.75
2023-03-11T00:25:32.660Z,12.48
2023-03-11T00:28:00.980Z,13.25
2023-03-11T00:30:29.555Z,13.52
2023-03-11T00:32:59.143Z,13.50
2023-03-11T00:35:29.279Z,13.07
2023-03-11T00:37:59.884Z,12.85
2023-03-11T00:40:30.794Z,12.43
2023-03-11T00:42:58.856Z,13.75
2023-03-11T00:45:27.606Z,12.85
2023-03-11T00:47:55.786Z,12.65
2023-03-11T00:50:25.755Z,11.70
2023-03-11T00:52:54.190Z,11.70
2023-03-11T00:55:25.500Z,11.70
2023-03-11T00:57:54.320Z,12.00
2023-03-11T01:00:24.360Z,11.30
2023-03-11T01:02:52.805Z,10.05
2023-03-11T01:05:21.747Z,10.95
2023-03-11T01:07:49.562Z,10.48
2023-03-11T01:10:17.859Z,10.13
2023-03-11T01:12:46.912Z,10.00
2023-03-11T01:15:19.619Z,11.13
2023-03-11T01:17:47.327Z,10.85
2023-03-11T01:20:16.002Z,11.18
2023-03-11T01:22:43.768Z,11.40
2023-03-11T01:25:14.850Z,12.10
2023-03-11T01:27:43.124Z,12.70
2023-03-11T01:30:16.336Z,12.88
2023-03-11T01:32:44.786Z,13.13
2023-03-11T01:35:14.146Z,12.57
2023-03-11T01:37:42.000Z,12.45
2023-03-11T01:40:16.012Z,12.50
2023-03-11T01:42:43.720Z,12.13
2023-03-11T01:45:34.008Z,12.98
2023-03-11T01:48:01.747Z,13.27
2023-03-11T01:50:33.851Z,12.52
2023-03-11T01:53:01.772Z,12.35
2023-03-11T01:55:30.305Z,11.45
2023-03-11T01:57:58.161Z,11.10
2023-03-11T02:00:27.348Z,10.13
2023-03-11T02:02:56.670Z,9.85
2023-03-11T02:05:26.018Z,8.65
2023-03-11T02:07:55.952Z,7.38
2023-03-11T02:10:23.895Z,6.43
2023-03-11T02:12:52.515Z,5.40
2023-03-11T02:15:20.228Z,6.10
2023-03-11T02:17:49.249Z,4.93
2023-03-11T02:20:28.609Z,4.63
2023-03-11T02:22:58.088Z,4.45
2023-03-11T02:25:35.633Z,3.37
2023-03-11T02:28:08.670Z,2.60
2023-03-11T02:30:37.610Z,2.67
2023-03-11T02:33:05.455Z,2.35
2023-03-11T02:35:33.216Z,2.17
2023-03-11T02:38:00.939Z,2.17
2023-03-11T02:40:45.048Z,2.20
2023-03-11T02:43:16.907Z,1.77
2023-03-11T02:45:46.563Z,1.85
2023-03-11T02:48:15.723Z,1.92
2023-03-11T02:50:44.275Z,2.00
2023-03-11T02:53:11.951Z,2.28
2023-03-11T02:55:39.674Z,1.95
2023-03-11T02:58:07.385Z,2.00
2023-03-11T03:00:36.482Z,2.50
2023-03-11T03:03:04.166Z,2.10
2023-03-11T03:05:32.005Z,2.22
2023-03-11T03:07:59.771Z,2.30
2023-03-11T03:10:27.616Z,2.47
2023-03-11T03:12:55.359Z,2.25
2023-03-11T03:15:23.106Z,2.10
2023-03-11T03:17:52.240Z,2.05
2023-03-11T03:20:22.650Z,2.03
2023-03-11T03:25:19.260Z,2.13
2023-03-11T03:27:47.104Z,2.20
2023-03-11T03:30:15.188Z,2.30
2023-03-11T03:32:42.944Z,2.40
2023-03-11T03:35:12.251Z,2.60
2023-03-11T03:37:40.249Z,2.40
2023-03-11T03:40:09.626Z,2.42
2023-03-11T03:42:38.271Z,2.60
2023-03-11T03:45:08.216Z,2.55
2023-03-11T03:47:37.168Z,2.55
2023-03-11T03:50:05.427Z,2.75
2023-03-11T03:52:35.993Z,2.63
2023-03-11T03:55:04.223Z,2.63
2023-03-11T03:57:31.886Z,3.00
2023-03-11T03:59:59.531Z,2.88
2023-03-11T04:02:27.345Z,2.58
2023-03-11T04:04:55.157Z,2.65
2023-03-11T04:07:22.811Z,3.10
2023-03-11T04:09:51.837Z,3.38
2023-03-11T04:12:19.529Z,3.20
2023-03-11T04:14:47.228Z,3.13
2023-03-11T04:17:17.697Z,3.30
2023-03-11T04:22:13.861Z,3.28
2023-03-11T04:24:41.622Z,3.67
2023-03-11T04:27:10.706Z,3.63
2023-03-11T04:29:38.588Z,3.38
2023-03-11T04:32:07.007Z,3.80
2023-03-11T04:34:34.836Z,3.53
2023-03-11T04:37:02.577Z,3.25
2023-03-11T04:39:30.244Z,3.50
2023-03-11T04:41:58.093Z,3.35
2023-03-11T04:44:27.154Z,3.20
2023-03-11T04:46:54.809Z,3.50
2023-03-11T04:49:22.480Z,3.72
2023-03-11T04:51:50.113Z,3.67
2023-03-11T04:54:17.743Z,3.50
2023-03-11T04:56:45.431Z,3.33
2023-03-11T04:59:13.104Z,3.30
2023-03-11T05:01:42.155Z,3.25
2023-03-11T05:04:11.781Z,3.78
2023-03-11T05:06:39.630Z,3.50
2023-03-11T05:09:07.479Z,3.50
2023-03-11T05:11:35.170Z,3.17
2023-03-11T05:14:02.843Z,3.25
2023-03-11T05:16:30.474Z,3.35
2023-03-11T05:18:59.482Z,3.38
2023-03-11T05:21:27.174Z,3.50
2023-03-11T05:23:54.830Z,3.30
2023-03-11T05:26:22.535Z,3.33
2023-03-11T05:28:50.163Z,3.08
2023-03-11T05:31:17.937Z,3.35
2023-03-11T05:33:45.609Z,3.17
2023-03-11T05:36:14.645Z,3.20
2023-03-11T05:38:42.357Z,3.03
2023-03-11T05:41:10.038Z,3.50
2023-03-11T05:43:37.681Z,3.63
2023-03-11T05:46:05.844Z,3.08
2023-03-11T05:48:33.578Z,3.17
2023-03-11T05:51:01.188Z,3.47
2023-03-11T05:53:30.221Z,3.30
2023-03-11T05:55:58.842Z,3.20
2023-03-11T05:58:27.017Z,3.22
2023-03-11T06:00:54.825Z,3.63
2023-03-11T06:03:23.075Z,3.28
2023-03-11T06:05:52.723Z,3.33
2023-03-11T06:08:21.978Z,3.53
2023-03-11T06:10:51.047Z,3.35
2023-03-11T06:13:18.723Z,3.50
2023-03-11T06:15:46.791Z,3.58
2023-03-11T06:18:14.452Z,3.70
2023-03-11T06:20:42.150Z,3.58
2023-03-11T06:23:10.390Z,3.55
2023-03-11T06:25:38.014Z,3.83
2023-03-11T06:28:07.162Z,3.92
2023-03-11T06:30:34.773Z,3.72
2023-03-11T06:33:02.463Z,3.80
2023-03-11T06:35:30.121Z,4.00
2023-03-11T06:37:57.805Z,3.70
2023-03-11T06:40:25.513Z,3.60
2023-03-11T06:42:53.282Z,3.05
2023-03-11T06:45:22.338Z,2.92
2023-03-11T06:47:49.975Z,3.15
2023-03-11T06:50:17.915Z,2.42
2023-03-11T06:52:45.595Z,2.50
2023-03-11T06:55:13.214Z,2.67
2023-03-11T06:57:40.891Z,3.17
2023-03-11T07:00:12.190Z,3.42
2023-03-11T07:02:41.205Z,4.28
2023-03-11T07:05:09.617Z,4.55
2023-03-11T07:07:37.318Z,4.13
2023-03-11T07:10:05.628Z,4.70
2023-03-11T07:12:33.335Z,4.50
2023-03-11T07:15:01.222Z,4.57
2023-03-11T07:17:29.092Z,4.60
2023-03-11T07:19:58.210Z,4.30
2023-03-11T07:22:26.004Z,4.60
2023-03-11T07:24:53.896Z,4.80
2023-03-11T07:27:22.386Z,4.82
2023-03-11T07:29:49.997Z,4.55
2023-03-11T07:32:17.986Z,4.70
2023-03-11T07:34:45.714Z,4.25
2023-03-11T07:37:15.417Z,4.70
2023-03-11T07:39:43.188Z,5.15
2023-03-11T07:42:10.916Z,4.70
2023-03-11T07:44:38.662Z,4.35
2023-03-11T07:47:06.907Z,4.00
2023-03-11T07:49:34.735Z,4.43
2023-03-11T07:52:02.449Z,4.20
2023-03-11T07:54:31.463Z,4.00
2023-03-11T07:56:59.156Z,4.32
2023-03-11T07:59:26.903Z,4.57
2023-03-11T08:01:54.528Z,4.40
2023-03-11T08:04:22.212Z,4.72
2023-03-11T08:06:49.885Z,4.60
2023-03-11T08:09:17.807Z,4.22
2023-03-11T08:11:48.769Z,18.88
2023-03-11T08:14:17.346Z,13.82
2023-03-11T08:16:45.000Z,4.60
2023-03-11T08:19:13.560Z,7.93
2023-03-11T08:21:41.470Z,8.48
2023-03-11T08:24:11.742Z,5.18
2023-03-11T08:26:39.408Z,5.10
2023-03-11T08:29:08.578Z,5.30
2023-03-11T08:31:36.317Z,4.90
2023-03-11T08:34:06.143Z,4.70
2023-03-11T08:36:34.688Z,4.82
2023-03-11T08:39:02.913Z,5.30
2023-03-11T08:41:30.660Z,5.57
2023-03-11T08:43:58.372Z,5.05
2023-03-11T08:46:29.312Z,5.28
2023-03-11T08:49:00.797Z,5.30
2023-03-11T08:51:28.838Z,5.75
2023-03-11T08:53:56.549Z,6.32
2023-03-11T08:56:24.429Z,5.80
2023-03-11T08:58:52.623Z,5.18
2023-03-11T09:01:21.135Z,5.18
2023-03-11T09:03:50.367Z,5.70
2023-03-11T09:06:18.706Z,5.32
2023-03-11T09:08:47.466Z,11.70
2023-03-11T09:11:17.703Z,15.45
2023-03-11T09:13:45.761Z,6.10
2023-03-11T09:16:14.689Z,5.55
2023-03-11T09:18:42.474Z,5.72
2023-03-11T09:21:12.097Z,5.38
2023-03-11T09:23:42.868Z,5.30
2023-03-11T09:26:11.804Z,5.32
2023-03-11T09:28:39.810Z,4.82
2023-03-11T09:31:07.544Z,5.00
2023-03-11T09:33:38.509Z,5.00
2023-03-11T09:36:07.171Z,4.80
2023-03-11T09:38:36.220Z,5.70
2023-03-11T09:41:09.395Z,4.93
2023-03-11T09:43:49.312Z,4.93
2023-03-11T09:46:36.504Z,4.97
2023-03-11T09:49:10.818Z,4.55
2023-03-11T09:51:43.694Z,12.52
2023-03-11T09:54:14.592Z,11.07
2023-03-11T09:56:44.885Z,5.20
2023-03-11T09:59:20.630Z,15.32
2023-03-11T10:01:51.011Z,6.45
2023-03-11T10:04:23.384Z,5.65
2023-03-11T10:06:51.667Z,5.60
2023-03-11T10:09:39.281Z,4.80
2023-03-11T10:12:19.853Z,9.98
2023-03-11T10:14:56.740Z,5.55
2023-03-11T10:17:40.750Z,5.13
2023-03-11T10:20:14.979Z,4.35
2023-03-11T10:22:51.418Z,4.57
2023-03-11T10:25:23.761Z,4.90
2023-03-11T10:27:56.076Z,4.28
2023-03-11T10:30:29.900Z,4.15
2023-03-11T10:33:02.429Z,4.70
2023-03-11T10:35:37.675Z,4.38
2023-03-11T10:38:12.770Z,4.38
2023-03-11T10:40:44.684Z,4.15
2023-03-11T10:43:15.448Z,3.85
2023-03-11T10:45:45.762Z,4.25
2023-03-11T10:48:16.020Z,3.92
2023-03-11T10:50:50.823Z,4.10
2023-03-11T10:53:20.875Z,5.05
2023-03-11T10:55:51.567Z,5.35
2023-03-11T10:58:22.013Z,4.57
2023-03-11T11:03:29.456Z,5.00
2023-03-11T11:06:04.202Z,4.47
2023-03-11T11:08:32.837Z,4.40
2023-03-11T11:11:03.654Z,4.22
2023-03-11T11:13:34.340Z,4.82
2023-03-11T11:16:04.250Z,5.40
2023-03-11T11:18:34.762Z,5.43
2023-03-11T11:23:42.317Z,7.93
2023-03-11T11:26:20.296Z,7.63
2023-03-11T11:28:48.050Z,5.78
2023-03-11T11:31:25.458Z,5.68
2023-03-11T11:33:55.531Z,5.68
2023-03-11T11:36:28.681Z,5.65
2023-03-11T11:38:57.070Z,5.25
2023-03-11T11:41:28.495Z,6.05
2023-03-11T11:43:58.381Z,5.80
2023-03-11T11:46:31.852Z,6.15
2023-03-11T11:49:08.086Z,6.40
2023-03-11T11:51:41.277Z,6.55
2023-03-11T11:54:18.106Z,6.22
2023-03-11T11:56:47.690Z,6.88
2023-03-11T11:59:18.762Z,6.28
2023-03-11T12:01:59.234Z,7.43
2023-03-11T12:07:22.941Z,7.00
2023-03-11T12:09:57.544Z,7.10
2023-03-11T12:12:33.739Z,7.03
2023-03-11T12:15:08.310Z,6.50
2023-03-11T12:17:39.839Z,7.53
2023-03-11T12:20:12.805Z,7.00
2023-03-11T12:22:54.549Z,7.63
2023-03-11T12:25:32.797Z,7.90
2023-03-11T12:28:10.702Z,7.03
2023-03-11T12:30:43.858Z,7.25
2023-03-11T12:33:18.359Z,7.38
2023-03-11T12:35:53.772Z,7.53
2023-03-11T12:38:29.723Z,7.47
2023-03-11T12:41:03.567Z,7.28
2023-03-11T12:44:01.482Z,6.60
2023-03-11T12:47:11.519Z,6.22
2023-03-11T12:49:40.946Z,7.20
2023-03-11T12:52:26.432Z,7.10
2023-03-11T12:55:38.609Z,6.85
2023-03-11T12:58:38.314Z,7.10
2023-03-11T13:01:44.389Z,7.20
2023-03-11T13:04:26.438Z,7.32
2023-03-11T13:07:15.279Z,7.40
2023-03-11T13:09:43.045Z,7.38
2023-03-11T13:12:40.122Z,7.32
2023-03-11T13:15:36.724Z,7.28
2023-03-11T13:18:17.740Z,6.97
2023-03-11T13:20:49.642Z,7.03
2023-03-11T13:23:29.405Z,7.10
2023-03-11T13:26:31.336Z,17.40
2023-03-11T13:29:30.190Z,8.15
2023-03-11T13:32:12.713Z,7.78
2023-03-11T13:34:49.240Z,7.28
2023-03-11T13:37:27.874Z,6.93
2023-03-11T13:40:07.125Z,6.57
2023-03-11T13:42:38.552Z,7.00
2023-03-11T13:45:13.752Z,6.57
2023-03-11T13:47:47.015Z,6.88
2023-03-11T13:50:24.057Z,7.10
2023-03-11T13:52:54.323Z,6.97
2023-03-11T13:55:24.207Z,6.72
2023-03-11T13:57:53.588Z,7.38
2023-03-11T14:00:24.397Z,6.78
2023-03-11T14:02:55.207Z,6.28
2023-03-11T14:05:27.816Z,6.00
2023-03-11T14:07:55.544Z,6.00
2023-03-11T14:10:27.272Z,6.97
2023-03-11T14:13:07.071Z,5.85
2023-03-11T14:15:44.809Z,6.35
2023-03-11T14:18:33.893Z,6.22
2023-03-11T14:21:04.745Z,6.07
2023-03-11T14:23:36.281Z,5.85
2023-03-11T14:26:08.396Z,5.78
2023-03-11T14:28:41.228Z,5.78
2023-03-11T14:31:09.230Z,4.97
2023-03-11T14:33:36.869Z,4.78
2023-03-11T14:36:15.679Z,4.97
2023-03-11T14:38:44.634Z,4.97
2023-03-11T14:41:16.499Z,4.95
2023-03-11T14:43:49.243Z,4.47
2023-03-11T14:46:21.251Z,5.18
2023-03-11T14:48:49.312Z,4.60
2023-03-11T14:51:23.603Z,5.28
2023-03-11T14:53:57.510Z,4.93
2023-03-11T14:56:27.549Z,4.97
2023-03-11T14:59:07.704Z,3.95
2023-03-11T15:01:40.560Z,4.20
2023-03-11T15:04:12.344Z,3.83
2023-03-11T15:06:43.883Z,3.72
2023-03-11T15:09:14.252Z,4.57
2023-03-11T15:11:47.041Z,3.90
2023-03-11T15:14:24.190Z,3.60
2023-03-11T15:16:53.220Z,3.97
2023-03-11T15:19:32.302Z,4.10
2023-03-11T15:22:06.317Z,4.25
2023-03-11T15:24:34.993Z,4.32
2023-03-11T15:27:05.470Z,4.20
2023-03-11T15:32:01.976Z,3.83
2023-03-11T15:34:31.902Z,3.72
2023-03-11T15:37:07.831Z,4.20
2023-03-11T15:39:44.943Z,3.53
2023-03-11T15:42:24.413Z,4.00
2023-03-11T15:45:12.031Z,3.70
2023-03-11T15:47:40.576Z,3.78
2023-03-11T15:50:24.035Z,3.72
2023-03-11T15:52:55.749Z,3.83
2023-03-11T15:55:24.064Z,3.75
2023-03-11T15:57:54.919Z,4.03
2023-03-11T16:00:24.895Z,3.72
2023-03-11T16:02:54.462Z,3.67
2023-03-11T16:05:23.637Z,2.97
2023-03-11T16:07:51.714Z,3.00
2023-03-11T16:10:24.140Z,2.95
2023-03-11T16:12:52.087Z,2.97
2023-03-11T16:15:24.786Z,2.85
2023-03-11T16:17:53.346Z,3.20
2023-03-11T16:20:22.477Z,3.30
2023-03-11T16:22:53.623Z,3.20
2023-03-11T16:25:26.315Z,2.83
2023-03-11T16:27:56.449Z,3.25
2023-03-11T16:30:26.553Z,3.13
2023-03-11T16:32:54.336Z,2.63
2023-03-11T16:35:22.386Z,3.40
2023-03-11T16:37:50.563Z,2.90
2023-03-11T16:40:21.725Z,3.17
2023-03-11T16:42:50.800Z,2.97
2023-03-11T16:45:19.249Z,3.20
2023-03-11T16:47:47.048Z,3.10
2023-03-11T16:50:14.796Z,2.92
2023-03-11T16:52:42.545Z,3.05
2023-03-11T16:55:11.141Z,3.30
2023-03-11T16:57:39.417Z,3.00
2023-03-11T17:00:11.546Z,2.92
2023-03-11T17:02:39.556Z,3.38
2023-03-11T17:05:09.567Z,3.40
2023-03-11T17:07:39.617Z,3.42
2023-03-11T17:10:08.316Z,2.95
2023-03-11T17:12:36.745Z,3.75
2023-03-11T17:15:06.726Z,3.38
2023-03-11T17:17:35.768Z,3.53
2023-03-11T17:20:04.065Z,3.20
2023-03-11T17:22:32.413Z,3.65
2023-03-11T17:25:00.101Z,2.97
2023-03-11T17:27:32.032Z,3.20
2023-03-11T17:29:59.907Z,3.60
2023-03-11T17:32:27.611Z,3.40
2023-03-11T17:34:56.640Z,3.80
2023-03-11T17:37:24.359Z,3.50
2023-03-11T17:39:52.190Z,3.88
2023-03-11T17:42:19.914Z,3.92
2023-03-11T17:44:51.784Z,4.00
2023-03-11T17:47:21.240Z,3.25
2023-03-11T17:49:49.734Z,3.33
2023-03-11T17:52:18.879Z,3.53
2023-03-11T17:54:46.819Z,3.85
2023-03-11T17:57:14.437Z,4.45
2023-03-11T17:59:42.089Z,3.75
2023-03-11T18:02:14.177Z,3.75
2023-03-11T18:04:45.874Z,3.70
2023-03-11T18:07:13.970Z,3.90
2023-03-11T18:09:42.974Z,4.55
2023-03-11T18:12:10.773Z,4.07
2023-03-11T18:14:38.490Z,5.40
2023-03-11T18:17:06.309Z,7.82
2023-03-11T18:19:34.385Z,8.88
2023-03-11T18:22:02.193Z,4.72
2023-03-11T18:24:29.989Z,4.85
2023-03-11T18:26:59.027Z,4.70
2023-03-11T18:29:26.762Z,4.90
2023-03-11T18:31:54.455Z,4.40
2023-03-11T18:34:23.137Z,4.15
2023-03-11T18:36:50.789Z,4.13
2023-03-11T18:39:18.443Z,3.90
2023-03-11T18:41:46.096Z,4.32
2023-03-11T18:44:15.346Z,4.82
2023-03-11T18:46:43.408Z,4.05
2023-03-11T18:49:12.864Z,4.45
2023-03-11T18:51:41.021Z,3.78
2023-03-11T18:54:08.987Z,3.75
2023-03-11T18:56:37.236Z,3.97
2023-03-11T18:59:05.124Z,3.65
2023-03-11T19:01:34.489Z,3.90
2023-03-11T19:04:02.209Z,3.50
2023-03-11T19:06:30.459Z,3.83
2023-03-11T19:08:58.674Z,3.60
2023-03-11T19:11:26.971Z,3.50
2023-03-11T19:13:54.958Z,3.28
2023-03-11T19:16:24.447Z,3.40
2023-03-11T19:18:55.138Z,2.83
2023-03-11T19:21:23.826Z,3.60
2023-03-11T19:23:54.909Z,3.38
2023-03-11T19:26:33.689Z,3.05
2023-03-11T19:29:09.836Z,3.63
2023-03-11T19:31:37.535Z,3.72
2023-03-11T19:34:06.591Z,3.70
2023-03-11T19:36:34.762Z,3.17
2023-03-11T19:39:03.139Z,4.13
2023-03-11T19:41:30.815Z,3.50
2023-03-11T19:43:58.513Z,3.17
2023-03-11T19:46:26.415Z,2.90
2023-03-11T19:48:56.515Z,2.83
2023-03-11T19:51:30.505Z,3.63
2023-03-11T19:54:00.717Z,3.40
2023-03-11T19:56:28.505Z,3.55
2023-03-11T19:58:57.694Z,2.97
2023-03-11T20:01:28.267Z,3.50
2023-03-11T20:03:55.958Z,3.60
2023-03-11T20:06:25.099Z,3.55
2023-03-11T20:08:52.833Z,3.25
2023-03-11T20:11:20.571Z,3.30
2023-03-11T20:13:48.559Z,5.97
2023-03-11T20:16:19.290Z,3.13
2023-03-11T20:18:49.818Z,3.00
2023-03-11T20:23:46.458Z,3.40
2023-03-11T20:26:15.269Z,2.90
2023-03-11T20:28:43.042Z,3.53
2023-03-11T20:31:13.959Z,3.20
2023-03-11T20:33:41.760Z,3.17
2023-03-11T20:36:11.607Z,3.00
2023-03-11T20:38:39.397Z,3.10
2023-03-11T20:41:09.714Z,3.22
2023-03-11T20:46:06.969Z,2.90
2023-03-11T20:48:35.331Z,2.67
2023-03-11T20:51:03.606Z,2.80
2023-03-11T20:53:31.641Z,2.92
2023-03-11T20:55:59.592Z,3.15
2023-03-11T20:58:28.701Z,2.90
2023-03-11T21:00:56.552Z,3.30
2023-03-11T21:03:24.375Z,2.88
2023-03-11T21:05:52.076Z,3.03
2023-03-11T21:08:19.882Z,2.40
2023-03-11T21:10:47.568Z,2.92
2023-03-11T21:13:15.217Z,2.65
2023-03-11T21:15:44.711Z,2.40
2023-03-11T21:18:12.536Z,2.50
2023-03-11T21:20:40.325Z,2.55
2023-03-11T21:23:09.577Z,2.88
2023-03-11T21:25:39.157Z,2.55
2023-03-11T21:28:06.860Z,2.53
2023-03-11T21:30:34.574Z,2.58
2023-03-11T21:33:03.882Z,2.67
2023-03-11T21:35:31.998Z,2.03
2023-03-11T21:37:59.780Z,2.10
2023-03-11T21:40:27.699Z,2.67
2023-03-11T21:42:55.504Z,2.75
2023-03-11T21:45:23.188Z,2.17
2023-03-11T21:47:50.930Z,2.40
2023-03-11T21:50:20.293Z,1.90
2023-03-11T21:52:47.999Z,2.72
2023-03-11T21:55:15.685Z,2.80
2023-03-11T21:57:43.379Z,2.80
2023-03-11T22:00:12.525Z,2.58
2023-03-11T22:02:40.170Z,2.42
2023-03-11T22:05:08.529Z,2.50
2023-03-11T22:07:37.875Z,2.55
2023-03-11T22:10:06.291Z,2.50
2023-03-11T22:12:34.120Z,2.45
2023-03-11T22:15:01.835Z,2.58
2023-03-11T22:17:29.686Z,2.60
2023-03-11T22:19:57.423Z,4.88
2023-03-11T22:22:25.175Z,2.85
2023-03-11T22:24:54.180Z,2.10
2023-03-11T22:27:21.816Z,2.45
2023-03-11T22:29:49.514Z,2.17
2023-03-11T22:32:17.268Z,2.30
2023-03-11T22:34:45.219Z,2.30
2023-03-11T22:37:12.922Z,2.30
2023-03-11T22:39:40.549Z,2.28
2023-03-11T22:42:09.664Z,1.90
2023-03-11T22:44:37.313Z,2.30
2023-03-11T22:47:05.110Z,2.50
2023-03-11T22:49:32.780Z,2.58
2023-03-11T22:52:00.452Z,2.22
2023-03-11T22:54:28.214Z,2.38
2023-03-11T22:56:55.949Z,2.17
2023-03-11T22:59:26.997Z,1.90
2023-03-11T23:01:54.703Z,1.55
2023-03-11T23:04:22.402Z,2.20
2023-03-11T23:06:50.141Z,1.90
2023-03-11T23:09:17.844Z,2.15
2023-03-11T23:11:45.487Z,2.28
2023-03-11T23:14:13.158Z,1.88
2023-03-11T23:16:42.308Z,2.13
2023-03-11T23:19:10.419Z,2.40
2023-03-11T23:21:38.197Z,2.10
2023-03-11T23:24:08.730Z,2.75
2023-03-11T23:26:37.341Z,1.80
2023-03-11T23:29:05.725Z,2.03
2023-03-11T23:31:33.433Z,1.80
2023-03-11T23:34:02.531Z,1.77
2023-03-11T23:36:32.137Z,2.10
2023-03-11T23:38:59.777Z,1.83
2023-03-11T23:41:27.866Z,2.30
2023-03-11T23:43:55.564Z,2.03
2023-03-11T23:46:23.262Z,2.15
2023-03-11T23:48:51.061Z,2.25
2023-03-11T23:51:19.998Z,1.88
2023-03-11T23:53:47.675Z,1.85
2023-03-11T23:56:17.935Z,2.00
2023-03-11T23:58:46.890Z,2.70
